Pueblo, CO

10:28 PM MDT on May 29, 2015 (GMT -0600)
Pueblo Memorial | | Change Station
CLOSE
Current Station
Airport
Location: Pueblo,
Elevation: 4721 ft
Nearby Weather Stations
Active Advisory: Flood Warning Active Notice: Public Information Statement

Elev 4721 ft 38.29 °N, 104.50 °W | Updated 17 minutes ago

Overcast
Overcast
59 °F
Feels Like 59 °F
N
7
Wind Variable Wind from WSW

Today
High -- | Low -- °F
--% Chance of Precip.
Yesterday
High -- | Low -- °F
Precip. -- in
5:37 AM 8:13 PM
Waxing Gibbous, 88% visible
Pressure 30.30 in
Visibility 10.0 miles
Clouds Mostly Cloudy 6000 ft
Overcast 7000 ft
Dew Point 48 °F
Humidity 67%
Rainfall 0.00 in
Snow Depth Not available.
UV 0 out of 12
Pollen 6.70 out of 12
Air Quality Not available.
Flu Activity Sporadic
SPECI KPUB 300411Z AUTO 24006KT 10SM BKN060 OVC070 15/09 A3030 RMK AO2 LTG DSNT NW T01500089

More Conditions Fewer Conditions

Pressure 30.30 in
Visibility 10.0 miles
Clouds Mostly Cloudy 6000 ft
Overcast 7000 ft
Dew Point 48 °F
Humidity 67%
Rainfall 0.00 in
Snow Depth Not available.
UV 0 out of 12
Pollen 6.70 out of 12
Air Quality Not available.
Flu Activity Sporadic
SPECI KPUB 300411Z AUTO 24006KT 10SM BKN060 OVC070 15/09 A3030 RMK AO2 LTG DSNT NW T01500089

More Conditions Fewer Conditions

10-Day Weather Forecast

Almanac

Astronomy

May. 29, 2015 Rise Set
Actual Time
Civil Twilight
Nautical Twilight
Astronomical Twilight
Moon
Length of Visible Light
Length of Day
Tomorrow will be .
, % of the Moon is Illuminated

Today's Extremes

State Highs State Lows

Community

WunderPhotos

Upload Photos

1,825,451 photos uploaded!

WunderBlogs® & News

Nearby

Air Quality

  Air Quality AQ Index Pollutant
Not available.

Snow Depth

Station Depth Elevation

Earthquake Activity

City Distance Mag. Time & Date
Minimum magnitude displayed is 2.5.

Coastal Water Temperatures

Place Temperature

Stations

Nearby Weather Stations

Station Location Temp. Windchill Dew Point Humidity Wind Precip. Elev Updated Type
                   
Flood Warning
Statement as of 7:35 PM MDT on May 29, 2015

The Flood Warning continues for
the Arkansas River near Avondale.
* Until Saturday afternoon... or until the warning is cancelled.
* At 7:15 PM Friday the stage was 7.0 feet.
* Flood stage is 7.0 feet.
* Forecast... the river is expected to stay near flood stage until
after midnight tonight... then start to fall.
* Impact... at 7.0 feet... minor lowland flooding occurs near Avondale.


Lat... Lon 3829 10441 3829 10434 3827 10425 3820 10425
      3822 10434 3822 10441